• Join FlightAware (Why Join?)
  • Login
  • US Flag 
06:13PM EST


 

Airport Tracker/Info


-or-


 

Live Flight TrackerFlight Track Log ✈ KAP444 ✈ 05-May-2013 ✈ KBOS - KALB

Flight Track Log - Related Links

Times and Time Zones

All times are in EDT time to prevent confusion due to time zone crossing. See the KAP444 flight status page for this flight to view local times or setup timezone preferences in your user account.

Time Position Orientation Groundspeed Altitude Reporting Facility
EDT Latitude Longitude Course Direction KTS MPH feet Rate Location/Type
01:06PM 42.3833 -71.0167 360° North 109 125 600  Level KA90
01:07PM 42.4167 -71.0167 360° North 115 132 1,200 480 Climbing KA90
01:08PM 42.4167 -71.0667 270° West 132 152 1,600 480 Climbing KA90
01:09PM 42.4167 -71.1167 270° West 130 150 2,200 660 Climbing KA90
01:10PM 42.4333 -71.1667 294° West 133 153 2,900 660 Climbing KA90
01:11PM 42.4333 -71.2000 270° West 127 146 3,500 540 Climbing KA90
01:12PM 42.4333 -71.2500 270° West 134 154 4,000 540 Climbing KA90
01:14PM 42.4556 -71.3539 286° West 143 165 5,100 540 Climbing Boston Center
01:15PM 42.4625 -71.4100 280° West 143 165 5,700 540 Climbing Boston Center
01:16PM 42.4692 -71.4633 280° West 143 165 6,200 480 Climbing Boston Center
01:17PM 42.4758 -71.5167 280° West 143 165 6,700 360 Climbing Boston Center
01:18PM 42.4825 -71.5703 280° West 143 165 7,000 420 Climbing Boston Center
01:19PM 42.4892 -71.6264 279° West 143 165 7,600 540 Climbing Boston Center
01:20PM 42.4958 -71.6797 280° West 143 165 8,100 420 Climbing Boston Center
01:21PM 42.5025 -71.7333 280° West 143 165 8,500 240 Climbing Boston Center
01:22PM 42.5089 -71.7922 278° West 149 171 8,600  Climbing Boston Center
01:23PM 42.5178 -71.8597 280° West 174 200 8,600  Level Boston Center
01:24PM 42.5264 -71.9217 281° West 174 200 8,600  Level Boston Center
01:25PM 42.5308 -71.9836 276° West 181 208 8,600 -60 Level Boston Center
01:26PM 42.5414 -72.0483 283° West 181 208 8,500  Descending Boston Center
01:27PM 42.5500 -72.1131 280° West 181 208 8,600  Climbing Boston Center
01:28PM 42.5564 -72.1781 278° West 181 208 8,500 -60 Descending Boston Center
01:29PM 42.5628 -72.2542 277° West 181 208 8,500  Level Boston Center
01:30PM 42.5753 -72.3189 285° West 181 208 8,600  Climbing Boston Center
01:31PM 42.5839 -72.3864 280° West 181 208 8,600 -60 Level Boston Center
01:32PM 42.5900 -72.4514 277° West 181 208 8,500 -60 Descending Boston Center
01:33PM 42.5983 -72.5133 280° West 181 208 8,500  Level Boston Center
01:34PM 42.6067 -72.5783 280° West 181 208 8,500  Level Boston Center
01:35PM 42.6150 -72.6403 280° West 181 208 8,500  Level Boston Center
01:36PM 42.6211 -72.7025 278° West 181 208 8,600  Climbing Boston Center
01:37PM 42.6250 -72.7533 276° West 172 198 8,500  Descending Boston Center
01:38PM 42.6331 -72.8211 279° West 173 199 8,600  Climbing Boston Center
01:39PM 42.6456 -72.8944 283° West 181 208 8,600  Level Boston Center
01:40PM 42.6472 -72.9567 272° West 172 198 8,600  Level Boston Center
01:41PM 42.6572 -73.0217 282° West 181 208 8,600  Level Boston Center
01:41PM 42.6614 -73.0669 277° West 172 198 8,600  Level Boston Center
01:42PM 42.6633 -73.0867 278° West 181 208 8,600  Level Boston Center
01:43PM 42.6714 -73.1375 282° West 170 196 8,600 -300 Level Boston Center
01:44PM 42.6814 -73.2056 281° West 180 207 8,100 -600 Descending Boston Center
01:45PM 42.6892 -73.2819 278° West 207 238 7,400 -660 Descending Boston Center
01:46PM 42.6989 -73.3583 280° West 205 236 6,800 -660 Descending Boston Center
01:46PM 42.7131 -73.4233 287° West 199 229 6,200 -780 Descending Boston Center
01:47PM 42.7169 -73.4406 287° West 200 230 5,900 -1,080 Descending Boston Center
01:48PM 42.7331 -73.5114 287° West 197 227 4,900 -960 Descending Boston Center
01:49PM 42.7428 -73.5625 285° West 200 230 4,000 -1,200 Descending Boston Center
01:50PM 42.7525 -73.6531 278° West 194 223 2,500 -1,080 Descending Boston Center
01:51PM 42.7519 -73.7039 269° West 138 159 2,000 -780 Descending Boston Center
01:52PM 42.7514 -73.7492 269° West 94 108 1,000 -1,020 Descending Boston Center
01:54PM 42.7333 -73.8000 299° West  Level FlightAware Approximate
02:01PM 42.7491 -73.8020 299° West  Level Estimated
02:02PM 42.7491 -73.8020 299° West  Level Estimated
02:03PM 42.7491 -73.8020 299° West  Level Estimated
02:04PM 42.7491 -73.8020 299° West  Level Estimated